Time;durP1;ratioP1;P1;durP2;ratioP2;P2;SDS_P1;SDS_P2;PMS_P1;PMS_P2;Temp;Humidity;BMP_temperature;BMP_pressure;BME280_temperature;BME280_humidity;BME280_pressure;Samples;Min_cycle;Max_cycle;Signal;HPM_P1;HPM_P2
2023/01/01 00:04:14;;;;;;;12.68;7.18;;;;;;;11.84;66.53;100165.47;30980577;28;96956;-71
2023/01/01 00:19:14;;;;;;;11.17;5.47;;;;;;;11.68;67.07;100182.41;30978433;28;96804;-71
2023/01/01 00:34:15;;;;;;;9.32;5.10;;;;;;;12.24;66.84;100176.00;30979478;28;96582;-71
2023/01/01 00:49:15;;;;;;;6.80;4.30;;;;;;;12.62;65.66;100193.84;30988624;28;97334;-71
2023/01/01 01:04:16;;;;;;;5.45;2.15;;;;;;;13.12;64.65;100205.63;30997504;28;97339;-71
2023/01/01 01:19:18;;;;;;;4.18;2.22;;;;;;;13.60;62.79;100212.34;30996454;28;96857;-71
2023/01/01 01:34:19;;;;;;;4.17;2.57;;;;;;;13.79;61.60;100224.28;30995022;28;97329;-71
2023/01/01 01:49:31;;;;;;;4.87;2.20;;;;;;;13.87;60.73;100225.00;30993016;28;96727;-70
2023/01/01 02:04:32;;;;;;;3.97;2.17;;;;;;;13.92;60.22;100235.13;30991351;28;96712;-71
2023/01/01 02:20:09;;;;;;;4.93;1.88;;;;;;;14.19;59.54;100244.25;30989801;28;97270;-70
2023/01/01 02:35:34;;;;;;;3.17;1.60;;;;;;;14.65;58.01;100247.50;30989090;28;97738;-71
2023/01/01 02:50:35;;;;;;;2.97;1.73;;;;;;;14.96;56.49;100248.97;30987203;28;96744;-71
2023/01/01 03:21:18;;;;;;;4.13;1.97;;;;;;;14.86;55.20;100250.13;30984118;28;96799;-70
2023/01/01 03:36:30;;;;;;;3.47;1.83;;;;;;;14.59;55.25;100265.19;30982812;28;97863;-70
2023/01/01 03:52:03;;;;;;;3.90;1.67;;;;;;;14.41;55.18;100286.25;30980976;28;98444;-70
2023/01/01 04:07:03;;;;;;;3.93;1.93;;;;;;;14.13;55.55;100295.91;30957124;28;96883;-71
2023/01/01 04:22:04;;;;;;;3.55;1.98;;;;;;;13.81;55.80;100292.69;30977953;28;97001;-71
2023/01/01 04:37:05;;;;;;;3.75;1.67;;;;;;;13.63;56.02;100293.13;30977640;28;96673;-70
2023/01/01 04:52:05;;;;;;;4.15;2.05;;;;;;;13.62;55.83;100328.09;30976012;28;96666;-69
2023/01/01 05:07:05;;;;;;;3.00;1.70;;;;;;;13.57;55.80;100341.22;30975516;28;96660;-71
2023/01/01 05:22:06;;;;;;;3.63;1.92;;;;;;;13.60;55.68;100338.16;30972295;28;96776;-71
2023/01/01 05:37:06;;;;;;;6.10;2.35;;;;;;;13.53;55.64;100346.09;30987258;28;97666;-71
2023/01/01 05:52:07;;;;;;;3.97;1.90;;;;;;;13.40;55.87;100360.13;30992840;28;96815;-71
2023/01/01 06:07:07;;;;;;;6.35;1.90;;;;;;;13.18;56.49;100353.84;30991841;28;97344;-71
2023/01/01 06:22:07;;;;;;;3.58;1.83;;;;;;;13.03;56.93;100361.84;30989719;28;97176;-71
2023/01/01 06:37:08;;;;;;;3.53;1.95;;;;;;;12.93;57.13;100361.25;30989091;28;97645;-70
2023/01/01 06:52:09;;;;;;;2.45;1.70;;;;;;;12.84;57.26;100353.31;30985405;28;97523;-69
2023/01/01 07:07:09;;;;;;;2.60;1.88;;;;;;;12.82;57.54;100375.88;30985638;28;97740;-70
2023/01/01 07:22:10;;;;;;;3.28;1.42;;;;;;;12.93;57.53;100401.34;30983714;28;97281;-70
2023/01/01 07:37:10;;;;;;;3.67;2.00;;;;;;;13.11;57.04;100401.88;30983116;28;97361;-70
2023/01/01 07:52:11;;;;;;;4.45;1.92;;;;;;;13.63;56.52;100421.59;30979745;28;96928;-70
2023/01/01 08:07:11;;;;;;;4.10;2.05;;;;;;;14.24;55.38;100419.69;30979552;28;96768;-70
2023/01/01 08:22:11;;;;;;;3.20;1.58;;;;;;;15.24;53.39;100415.28;30977967;28;97499;-67
2023/01/01 08:37:13;;;;;;;7.03;2.50;;;;;;;17.71;48.94;100427.69;30975701;28;97293;-70
2023/01/01 08:52:14;;;;;;;1.77;1.20;;;;;;;20.32;43.47;100447.28;30974669;28;96788;-70
2023/01/01 09:07:14;;;;;;;3.33;1.87;;;;;;;22.35;38.07;100470.75;30981090;28;96700;-72
2023/01/01 09:22:14;;;;;;;2.58;1.40;;;;;;;24.46;33.91;100474.00;30993614;28;97404;-70
2023/01/01 09:37:15;;;;;;;3.43;1.97;;;;;;;24.89;31.63;100458.66;30992359;28;97268;-67
2023/01/01 09:52:17;;;;;;;5.57;1.80;;;;;;;26.24;30.07;100436.53;30992145;28;96667;-67
2023/01/01 10:07:32;;;;;;;4.60;2.00;;;;;;;25.50;29.50;100427.47;30990783;28;96686;-67
2023/01/01 10:22:41;;;;;;;4.17;2.20;;;;;;;27.41;28.97;100461.50;30989207;28;97083;-67
2023/01/01 10:37:42;;;;;;;4.47;2.50;;;;;;;27.34;27.68;100459.03;30988531;28;96731;-67
2023/01/01 10:52:55;;;;;;;3.70;2.10;;;;;;;31.28;24.11;100479.84;30986257;28;96734;-67
2023/01/01 11:07:55;;;;;;;5.83;2.50;;;;;;;32.42;21.83;100453.59;30984701;28;96805;-67
2023/01/01 11:22:56;;;;;;;4.88;2.65;;;;;;;27.97;25.19;100443.28;30983313;28;97301;-68
2023/01/01 11:37:58;;;;;;;4.10;2.38;;;;;;;26.11;27.95;100434.31;30981120;28;96857;-71
2023/01/01 11:53:17;;;;;;;5.37;2.47;;;;;;;29.43;24.35;100450.19;30979961;28;97558;-67
2023/01/01 12:08:27;;;;;;;5.27;3.57;;;;;;;30.62;23.04;100458.63;30978972;28;96656;-68
2023/01/01 12:23:29;;;;;;;5.20;2.77;;;;;;;25.45;27.51;100441.06;30977325;28;96710;-71
2023/01/01 12:38:46;;;;;;;4.43;2.50;;;;;;;23.23;31.59;100438.66;30978221;28;97098;-71
2023/01/01 12:54:08;;;;;;;4.77;2.40;;;;;;;23.26;32.74;100424.56;30997305;28;97912;-72
2023/01/01 13:09:21;;;;;;;6.60;2.90;;;;;;;23.30;31.44;100442.00;30995485;28;97314;-69
2023/01/01 13:24:26;;;;;;;9.57;5.33;;;;;;;23.22;31.08;100456.00;30993439;28;97975;-70
2023/01/01 13:40:05;;;;;;;9.00;3.67;;;;;;;20.92;34.12;100461.88;30993056;28;96817;-69
2023/01/01 13:55:40;;;;;;;5.87;2.77;;;;;;;19.15;37.53;100473.25;30990996;28;96822;-72
2023/01/01 14:10:48;;;;;;;8.53;3.90;;;;;;;17.54;40.47;100500.84;30989671;28;97325;-70
2023/01/01 14:25:49;;;;;;;7.53;4.37;;;;;;;16.53;42.90;100502.56;30989420;28;97341;-70
2023/01/01 14:41:00;;;;;;;10.75;3.10;;;;;;;15.54;45.58;100504.50;30987444;28;97342;-70
2023/01/01 14:56:05;;;;;;;7.80;3.30;;;;;;;14.90;47.01;100529.53;30985284;28;96737;-68
2023/01/01 15:11:06;;;;;;;8.80;3.57;;;;;;;14.21;49.41;100538.78;30983455;28;97064;-69
2023/01/01 15:26:23;;;;;;;8.80;4.13;;;;;;;13.88;50.62;100558.72;30983381;28;97020;-68
2023/01/01 15:41:48;;;;;;;7.87;3.90;;;;;;;13.68;51.58;100571.81;30980490;28;99589;-69
2023/01/01 15:56:49;;;;;;;12.20;4.70;;;;;;;13.57;51.85;100590.13;30973670;28;97492;-69
2023/01/01 16:11:55;;;;;;;9.40;3.93;;;;;;;13.44;52.26;100604.97;30978633;28;97355;-67
2023/01/01 16:26:56;;;;;;;9.50;4.30;;;;;;;13.29;52.79;100610.22;30976762;28;97439;-67
2023/01/01 16:41:58;;;;;;;10.23;5.27;;;;;;;13.34;52.83;100618.53;30974683;28;97528;-68
2023/01/01 16:56:58;;;;;;;11.63;4.78;;;;;;;13.24;52.68;100619.78;30974258;28;97384;-69
2023/01/01 17:11:58;;;;;;;8.88;4.22;;;;;;;13.13;53.02;100640.56;30971859;28;96687;-69
2023/01/01 17:26:59;;;;;;;11.27;4.70;;;;;;;12.63;53.60;100639.97;30977158;28;97403;-69
2023/01/01 17:42:00;;;;;;;11.23;4.88;;;;;;;12.30;55.10;100649.91;30992234;28;96641;-69
2023/01/01 17:57:04;;;;;;;11.03;5.80;;;;;;;12.19;55.93;100643.94;30991257;28;96748;-69
2023/01/01 18:12:04;;;;;;;14.43;5.70;;;;;;;12.00;56.65;100644.28;30989250;28;97105;-69
2023/01/01 18:27:07;;;;;;;15.80;6.63;;;;;;;11.65;56.57;100659.63;30989339;28;96900;-69
2023/01/01 18:42:13;;;;;;;11.03;5.80;;;;;;;11.36;57.77;100655.59;30939582;28;98396;-73
2023/01/01 18:57:19;;;;;;;14.00;5.53;;;;;;;11.16;58.50;100663.84;30885561;28;97475;-71
2023/01/01 19:12:19;;;;;;;17.13;7.37;;;;;;;11.12;59.23;100675.84;30987673;28;97539;-70
2023/01/01 19:27:22;;;;;;;14.35;6.90;;;;;;;10.98;59.61;100695.13;30970336;28;97393;-71
2023/01/01 19:42:22;;;;;;;11.87;6.27;;;;;;;11.07;60.82;100690.66;30971446;28;98455;-75
2023/01/01 19:57:23;;;;;;;14.35;6.35;;;;;;;10.81;61.32;100692.41;30969427;28;97272;-72
2023/01/01 20:12:23;;;;;;;19.40;8.90;;;;;;;10.55;62.02;100680.94;30968518;28;96881;-73
2023/01/01 20:27:26;;;;;;;16.50;8.15;;;;;;;10.24;62.61;100684.06;30967680;28;97110;-73
2023/01/01 20:42:26;;;;;;;15.77;8.70;;;;;;;9.83;63.56;100697.88;30965425;28;97563;-69
2023/01/01 20:57:27;;;;;;;20.13;9.82;;;;;;;9.48;64.50;100697.69;30965481;28;97056;-70
2023/01/01 21:12:27;;;;;;;17.20;8.73;;;;;;;9.40;65.28;100697.59;30984729;28;97510;-68
2023/01/01 21:27:32;;;;;;;14.50;7.57;;;;;;;9.54;65.48;100700.75;30983192;28;96613;-69
2023/01/01 21:42:33;;;;;;;15.73;7.90;;;;;;;9.67;65.47;100693.22;30992750;28;96886;-66
2023/01/01 21:57:36;;;;;;;18.38;8.30;;;;;;;9.72;65.98;100712.25;30991825;28;96698;-69
2023/01/01 22:12:36;;;;;;;15.33;7.90;;;;;;;9.70;65.71;100716.03;30991102;28;96782;-68
2023/01/01 22:27:37;;;;;;;14.45;7.35;;;;;;;9.70;66.04;100716.88;30988365;28;96682;-70
2023/01/01 22:42:37;;;;;;;13.27;7.32;;;;;;;9.82;65.87;100685.56;30987999;28;96685;-70
2023/01/01 22:57:38;;;;;;;14.80;6.97;;;;;;;9.95;65.40;100655.88;30987269;28;97026;-67
2023/01/01 23:12:38;;;;;;;17.33;8.20;;;;;;;9.90;65.77;100658.19;30986236;28;96587;-67
2023/01/01 23:27:39;;;;;;;13.60;7.03;;;;;;;10.02;65.63;100627.66;30983709;28;97154;-65
2023/01/01 23:42:39;;;;;;;11.27;6.90;;;;;;;10.15;65.71;100620.06;30982312;28;97714;-66
2023/01/01 23:57:40;;;;;;;12.88;7.18;;;;;;;10.27;65.43;100618.00;30981322;28;96724;-67
